createdAt,value
2022-09-30T06:00:52.933Z,92.56
2022-09-30T06:03:54.823Z,91.53
2022-09-30T06:06:56.457Z,90.59
2022-09-30T06:09:58.793Z,90.49
2022-09-30T06:13:03.505Z,89.50
2022-09-30T06:16:06.388Z,88.76
2022-09-30T06:19:08.071Z,88.52
2022-09-30T06:22:09.657Z,88.00
2022-09-30T06:25:12.015Z,87.98
2022-09-30T06:28:13.929Z,88.08
2022-09-30T06:31:15.871Z,87.97
2022-09-30T06:34:17.514Z,88.17
2022-09-30T06:37:19.194Z,88.39
2022-09-30T06:40:21.348Z,88.50
2022-09-30T06:43:23.058Z,88.86
2022-09-30T06:46:29.801Z,88.71
2022-09-30T06:49:44.044Z,88.78
2022-09-30T06:52:48.183Z,88.48
2022-09-30T06:55:55.640Z,87.69
2022-09-30T06:58:57.230Z,86.78
2022-09-30T07:01:58.900Z,86.05
2022-09-30T07:05:01.669Z,85.65
2022-09-30T07:08:03.513Z,85.64
2022-09-30T07:11:14.893Z,84.94
2022-09-30T07:14:16.477Z,84.21
2022-09-30T07:17:18.337Z,84.09
2022-09-30T07:20:20.263Z,84.13
2022-09-30T07:23:26.509Z,83.85
2022-09-30T07:26:29.009Z,83.73
2022-09-30T07:29:44.448Z,82.91
2022-09-30T07:32:53.495Z,83.09
2022-09-30T07:35:57.083Z,83.19
2022-09-30T07:38:59.104Z,82.44
2022-09-30T07:42:02.358Z,82.43
2022-09-30T07:45:04.597Z,82.87
2022-09-30T07:48:26.166Z,81.60
2022-09-30T07:51:34.425Z,81.95
2022-09-30T07:54:41.021Z,81.54
2022-09-30T07:57:44.155Z,81.08
2022-09-30T08:00:50.709Z,81.01
2022-09-30T08:03:57.921Z,81.25
2022-09-30T08:07:02.244Z,80.73
2022-09-30T08:10:04.097Z,80.34
2022-09-30T08:13:06.366Z,79.73
2022-09-30T08:16:08.379Z,79.57
2022-09-30T08:19:16.187Z,79.10
2022-09-30T08:22:17.829Z,79.03
2022-09-30T08:25:19.408Z,78.11
2022-09-30T08:28:21.110Z,79.20
2022-09-30T08:31:24.219Z,78.26
2022-09-30T08:34:25.958Z,78.54
2022-09-30T08:37:27.587Z,78.13
2022-09-30T08:40:32.316Z,77.92
2022-09-30T08:43:51.072Z,78.18
2022-09-30T08:47:10.848Z,77.78
2022-09-30T08:50:12.386Z,77.41
2022-09-30T08:53:24.018Z,76.59
2022-09-30T08:56:29.416Z,77.08
2022-09-30T08:59:48.253Z,76.62
2022-09-30T09:03:00.431Z,77.04
2022-09-30T09:06:16.715Z,76.92
2022-09-30T09:09:45.607Z,77.79
2022-09-30T09:13:09.906Z,76.51
2022-09-30T09:16:49.588Z,76.43
2022-09-30T09:20:09.870Z,76.57
2022-09-30T09:23:13.619Z,77.35
2022-09-30T09:26:15.975Z,76.73
2022-09-30T09:29:48.524Z,76.34
2022-09-30T09:32:55.297Z,75.48
2022-09-30T09:35:59.790Z,75.29
2022-09-30T09:39:07.896Z,75.16
2022-09-30T09:42:31.237Z,74.65
2022-09-30T09:45:51.167Z,74.94
2022-09-30T09:49:20.729Z,72.32
2022-09-30T09:52:34.665Z,72.23
2022-09-30T09:55:37.765Z,72.59
2022-09-30T09:59:02.343Z,70.96
2022-09-30T10:02:22.566Z,69.82
2022-09-30T10:05:29.894Z,69.14
2022-09-30T10:08:53.585Z,69.79
2022-09-30T10:12:07.454Z,70.30
2022-09-30T10:15:18.317Z,70.48
2022-09-30T10:18:31.591Z,70.97
2022-09-30T10:21:33.214Z,71.31
2022-09-30T10:24:37.012Z,71.64
2022-09-30T10:27:51.552Z,71.17
2022-09-30T10:31:01.301Z,71.04
2022-09-30T10:34:25.831Z,71.04
2022-09-30T10:37:27.764Z,71.10
2022-09-30T10:40:30.368Z,70.35
2022-09-30T10:43:39.231Z,69.66
2022-09-30T10:46:43.232Z,70.74
2022-09-30T10:50:00.893Z,69.31
2022-09-30T10:53:15.750Z,69.48
2022-09-30T10:56:37.859Z,70.20
2022-09-30T10:59:42.579Z,69.41
2022-09-30T11:03:14.617Z,68.79
2022-09-30T11:06:17.161Z,69.84
2022-09-30T11:09:36.615Z,68.38
2022-09-30T11:12:51.269Z,67.22
2022-09-30T11:16:11.555Z,66.19
2022-09-30T11:19:34.937Z,67.36
2022-09-30T11:22:54.884Z,66.67
2022-09-30T11:26:16.765Z,66.45
2022-09-30T11:29:18.489Z,66.57
2022-09-30T11:32:27.593Z,66.28
2022-09-30T11:35:44.447Z,66.21
2022-09-30T11:38:45.965Z,65.80
2022-09-30T11:42:22.448Z,63.97
2022-09-30T11:45:42.522Z,63.27
2022-09-30T11:48:50.224Z,64.72
2022-09-30T11:52:10.421Z,63.36
2022-09-30T11:55:40.832Z,63.65
2022-09-30T11:58:52.895Z,63.96
2022-09-30T12:02:01.115Z,65.64
2022-09-30T12:05:13.092Z,65.76
2022-09-30T12:08:36.352Z,65.01
2022-09-30T12:11:49.692Z,66.34
2022-09-30T12:15:05.056Z,65.61
2022-09-30T12:18:13.545Z,66.42
2022-09-30T12:21:24.405Z,65.83
2022-09-30T12:24:36.348Z,65.25
2022-09-30T12:27:54.810Z,66.05
2022-09-30T12:31:07.981Z,66.52
2022-09-30T12:34:18.148Z,66.75
2022-09-30T12:37:32.024Z,66.92
2022-09-30T12:40:56.054Z,66.23
2022-09-30T12:44:16.757Z,66.42
2022-09-30T12:47:24.343Z,64.38
2022-09-30T12:50:30.041Z,64.62
2022-09-30T12:53:38.846Z,64.01
2022-09-30T12:56:49.956Z,63.15
2022-09-30T12:59:55.682Z,60.68
2022-09-30T13:03:04.844Z,59.29
2022-09-30T13:06:06.825Z,60.42
2022-09-30T13:09:11.349Z,60.81
2022-09-30T13:12:24.177Z,60.84
2022-09-30T13:15:28.924Z,60.79
2022-09-30T13:18:30.466Z,62.81
2022-09-30T13:21:32.484Z,59.08
2022-09-30T13:25:05.758Z,56.75
2022-09-30T13:28:17.502Z,56.52
2022-09-30T13:31:24.129Z,57.15
2022-09-30T13:34:32.979Z,59.00
2022-09-30T13:37:38.110Z,57.40
2022-09-30T13:41:01.368Z,57.60
2022-09-30T13:44:14.723Z,58.38
2022-09-30T13:47:28.148Z,57.36
2022-09-30T13:50:37.682Z,58.21
2022-09-30T13:53:46.986Z,58.20
2022-09-30T13:56:49.861Z,58.14
2022-09-30T14:00:13.021Z,58.38
2022-09-30T14:03:38.809Z,57.75
2022-09-30T14:07:02.300Z,58.12
2022-09-30T14:10:15.481Z,57.34
2022-09-30T14:13:32.480Z,56.63
2022-09-30T14:16:46.956Z,56.69
2022-09-30T14:20:15.002Z,57.36
2022-09-30T14:23:18.961Z,58.89
2022-09-30T14:26:39.449Z,58.07
2022-09-30T14:29:59.224Z,59.19
2022-09-30T14:33:25.695Z,61.00
2022-09-30T14:36:27.675Z,59.64
2022-09-30T14:39:31.405Z,58.36
2022-09-30T14:42:38.633Z,57.94
2022-09-30T14:45:45.430Z,58.67
2022-09-30T14:48:50.646Z,58.62
2022-09-30T14:51:52.405Z,59.07
2022-09-30T14:54:54.571Z,58.89
2022-09-30T14:58:17.434Z,58.34
2022-09-30T15:01:22.821Z,59.27
2022-09-30T15:04:28.764Z,60.89
2022-09-30T15:07:31.246Z,60.66
2022-09-30T15:10:33.043Z,59.48
2022-09-30T15:13:36.060Z,59.76
2022-09-30T15:16:46.514Z,60.55
2022-09-30T15:19:50.230Z,61.15
2022-09-30T15:22:53.227Z,61.43
2022-09-30T15:25:57.367Z,62.58
2022-09-30T15:28:59.014Z,62.95
2022-09-30T15:32:12.379Z,61.68
2022-09-30T15:35:17.375Z,61.41
2022-09-30T15:38:25.075Z,61.65
2022-09-30T15:41:26.797Z,62.23
2022-09-30T15:44:37.864Z,63.20
2022-09-30T15:47:58.237Z,62.52
2022-09-30T15:51:01.581Z,63.15
2022-09-30T15:54:15.472Z,63.69
2022-09-30T15:57:49.816Z,63.94
2022-09-30T16:00:52.717Z,64.41
2022-09-30T16:04:00.124Z,65.02
2022-09-30T16:07:11.127Z,66.28
2022-09-30T16:10:20.869Z,67.47
2022-09-30T16:13:26.719Z,68.79
2022-09-30T16:16:32.108Z,69.17
2022-09-30T16:19:35.437Z,68.65
2022-09-30T16:22:39.974Z,68.92
2022-09-30T16:25:42.159Z,69.82
2022-09-30T16:28:44.072Z,70.82
2022-09-30T16:31:48.790Z,71.58
2022-09-30T16:34:50.613Z,72.76
2022-09-30T16:38:00.273Z,74.06
2022-09-30T16:41:03.733Z,75.27
2022-09-30T16:44:05.326Z,75.73
2022-09-30T16:47:07.123Z,76.20
2022-09-30T16:50:46.377Z,76.89
2022-09-30T16:53:48.139Z,77.61
2022-09-30T16:56:49.790Z,77.79
2022-09-30T16:59:51.476Z,78.15
2022-09-30T17:02:53.768Z,78.54
2022-09-30T17:05:55.468Z,79.19
2022-09-30T17:08:58.021Z,79.78
2022-09-30T17:12:01.314Z,80.25
2022-09-30T17:15:02.999Z,80.26
2022-09-30T17:18:09.707Z,81.10
2022-09-30T17:21:11.199Z,81.98
2022-09-30T17:24:12.751Z,81.92
2022-09-30T17:27:14.342Z,82.32
2022-09-30T17:30:19.910Z,82.28
2022-09-30T17:33:21.544Z,82.68
2022-09-30T17:36:23.280Z,83.08
2022-09-30T17:39:27.692Z,83.13
2022-09-30T17:42:47.797Z,83.26
2022-09-30T17:45:55.617Z,83.59
2022-09-30T17:48:57.494Z,83.80
2022-09-30T17:51:59.426Z,84.33
2022-09-30T17:55:01.303Z,85.16
2022-09-30T17:58:03.285Z,85.27
2022-09-30T23:16:44.868Z,78.79
2022-09-30T23:20:35.823Z,78.83
2022-09-30T23:30:42.118Z,78.38
2022-09-30T23:40:04.893Z,78.10
2022-09-30T23:56:26.247Z,76.82
